createdAt,value
2023-04-15T04:15:12.957Z,21.30
2023-04-15T04:16:13.017Z,20.90
2023-04-15T04:17:12.975Z,20.70
2023-04-15T04:18:12.882Z,18.50
2023-04-15T04:19:12.875Z,21.00
2023-04-15T04:20:12.855Z,19.20
2023-04-15T04:21:12.863Z,19.10
2023-04-15T04:22:12.836Z,23.40
2023-04-15T04:23:12.818Z,24.30
2023-04-15T04:24:12.808Z,27.20
2023-04-15T04:25:12.792Z,26.40
2023-04-15T04:26:12.788Z,26.10
2023-04-15T04:27:12.788Z,23.30
2023-04-15T04:28:12.754Z,21.10
2023-04-15T04:29:12.795Z,24.70
2023-04-15T04:30:12.723Z,25.10
2023-04-15T04:31:12.732Z,22.90
2023-04-15T04:32:12.778Z,20.50
2023-04-15T04:33:12.717Z,23.70
2023-04-15T04:34:12.674Z,25.60
2023-04-15T04:35:12.662Z,27.70
2023-04-15T04:36:12.656Z,22.60
2023-04-15T04:37:12.637Z,24.00
2023-04-15T04:38:12.626Z,25.50
2023-04-15T04:39:12.615Z,21.30
2023-04-15T04:40:12.586Z,23.00
2023-04-15T04:41:12.612Z,25.40
2023-04-15T04:42:12.569Z,23.10
2023-04-15T04:43:12.561Z,24.20
2023-04-15T04:44:12.540Z,22.10
2023-04-15T04:45:12.542Z,22.90
2023-04-15T04:46:12.588Z,24.40
2023-04-15T04:47:12.507Z,21.60
2023-04-15T04:48:12.492Z,21.90
2023-04-15T04:49:12.486Z,22.90
2023-04-15T04:50:12.462Z,19.60
2023-04-15T04:51:12.472Z,23.50
2023-04-15T04:52:12.440Z,22.50
2023-04-15T04:53:12.447Z,22.10
2023-04-15T04:54:12.408Z,19.10
2023-04-15T04:55:12.403Z,20.60
2023-04-15T04:56:12.412Z,21.70
2023-04-15T04:57:12.374Z,20.00
2023-04-15T04:58:12.368Z,21.90
2023-04-15T04:59:12.350Z,19.10
2023-04-15T05:00:12.336Z,20.90
2023-04-15T05:01:12.356Z,22.50
2023-04-15T05:02:12.390Z,21.00
2023-04-15T05:03:12.475Z,21.20
2023-04-15T05:04:12.349Z,24.50
2023-04-15T05:05:12.311Z,19.60
2023-04-15T05:06:12.258Z,24.80
2023-04-15T05:07:12.244Z,22.50
2023-04-15T05:08:12.232Z,22.60
2023-04-15T05:09:12.236Z,24.40
2023-04-15T05:10:12.209Z,22.70
2023-04-15T05:11:12.207Z,28.00
2023-04-15T05:12:12.174Z,25.30
2023-04-15T05:13:12.177Z,23.80
2023-04-15T05:14:12.152Z,26.50
2023-04-15T05:15:12.136Z,27.20
2023-04-15T05:16:12.191Z,23.20
2023-04-15T05:17:12.106Z,25.90
2023-04-15T05:18:12.109Z,26.60
2023-04-15T05:19:12.108Z,25.40
2023-04-15T05:20:12.072Z,23.30
2023-04-15T05:21:12.072Z,23.60
2023-04-15T05:22:12.043Z,25.50
2023-04-15T05:23:12.035Z,23.20
2023-04-15T05:24:12.016Z,23.40
2023-04-15T05:25:12.015Z,24.70
2023-04-15T05:26:12.004Z,23.50
2023-04-15T05:27:11.993Z,24.70
2023-04-15T05:28:11.965Z,24.70
2023-04-15T05:29:11.958Z,22.00
2023-04-15T05:30:13.446Z,24.20
2023-04-15T05:31:11.964Z,22.40
2023-04-15T05:32:11.918Z,24.10
2023-04-15T05:33:11.908Z,22.20
2023-04-15T05:34:11.895Z,21.70
2023-04-15T05:35:11.894Z,20.90
2023-04-15T05:36:11.875Z,22.40
2023-04-15T05:37:11.853Z,20.70
2023-04-15T05:38:11.836Z,23.10
2023-04-15T05:39:11.829Z,25.00
2023-04-15T05:40:11.814Z,26.50
2023-04-15T05:41:11.822Z,22.00
2023-04-15T05:42:11.780Z,22.60
2023-04-15T05:43:11.785Z,21.90
2023-04-15T05:44:11.767Z,23.30
2023-04-15T05:45:11.749Z,23.10
2023-04-15T05:46:11.783Z,22.20
2023-04-15T05:47:11.719Z,23.10
2023-04-15T05:48:11.707Z,20.50
2023-04-15T05:49:11.702Z,20.50
2023-04-15T05:50:11.683Z,22.80
2023-04-15T05:51:11.715Z,22.00
2023-04-15T05:52:11.658Z,21.10
2023-04-15T05:53:11.660Z,22.80
2023-04-15T05:54:11.641Z,21.00
2023-04-15T05:55:11.618Z,21.50
2023-04-15T05:56:11.619Z,22.20
2023-04-15T05:57:11.589Z,20.10
2023-04-15T05:58:11.582Z,21.00
2023-04-15T05:59:11.573Z,21.20
2023-04-15T06:00:11.554Z,22.50
2023-04-15T06:01:11.549Z,22.40
2023-04-15T06:02:11.642Z,19.50
2023-04-15T06:03:11.643Z,19.50
2023-04-15T06:04:11.713Z,18.50
2023-04-15T06:05:11.487Z,18.20
2023-04-15T06:06:11.492Z,21.90
2023-04-15T06:07:11.468Z,20.40
2023-04-15T06:08:11.475Z,18.20
2023-04-15T06:09:11.457Z,19.20
2023-04-15T06:10:11.420Z,18.90
2023-04-15T06:11:11.421Z,18.20
2023-04-15T06:12:11.399Z,16.80
2023-04-15T06:13:11.383Z,17.70
2023-04-15T06:14:11.369Z,18.60
2023-04-15T06:15:11.358Z,17.50
2023-04-15T06:16:11.358Z,20.20
2023-04-15T06:17:11.328Z,18.20
2023-04-15T06:18:11.309Z,15.70
2023-04-15T06:19:11.299Z,18.70
2023-04-15T06:20:11.306Z,18.00
2023-04-15T06:21:11.286Z,19.80
2023-04-15T06:22:11.273Z,18.00
2023-04-15T06:23:11.249Z,19.70
2023-04-15T06:24:11.232Z,18.10
2023-04-15T06:25:11.242Z,20.30
2023-04-15T06:26:11.213Z,19.60
2023-04-15T06:27:11.204Z,18.00
2023-04-15T06:28:11.176Z,19.50
2023-04-15T06:29:11.166Z,21.20
2023-04-15T06:30:11.153Z,19.20
2023-04-15T06:31:11.162Z,19.50
2023-04-15T06:32:11.125Z,19.20
2023-04-15T06:33:11.111Z,18.50
2023-04-15T06:34:11.129Z,16.30
2023-04-15T06:35:11.102Z,17.30
2023-04-15T06:36:11.092Z,20.90
2023-04-15T06:37:11.072Z,17.10
2023-04-15T06:38:11.046Z,18.00
2023-04-15T06:39:11.034Z,18.60
2023-04-15T06:40:11.031Z,19.70
2023-04-15T06:41:11.006Z,17.50
2023-04-15T06:42:10.993Z,18.30
2023-04-15T06:43:10.979Z,16.90
2023-04-15T06:44:10.961Z,18.00
2023-04-15T06:45:10.974Z,19.70
2023-04-15T06:46:10.967Z,16.70
2023-04-15T06:47:10.930Z,17.80
2023-04-15T06:48:10.914Z,16.30
2023-04-15T06:49:10.905Z,18.30
2023-04-15T06:50:10.881Z,17.80
2023-04-15T06:51:10.889Z,16.50
2023-04-15T06:52:10.855Z,19.70
2023-04-15T06:53:10.852Z,20.30
2023-04-15T06:54:10.852Z,18.90
2023-04-15T06:55:10.853Z,23.20
2023-04-15T06:56:10.818Z,16.10
2023-04-15T06:57:10.819Z,17.10
2023-04-15T06:58:10.775Z,17.80
2023-04-15T06:59:10.769Z,19.80
2023-04-15T07:00:10.763Z,18.70
2023-04-15T07:01:10.813Z,18.70
2023-04-15T07:02:10.777Z,18.50
2023-04-15T07:03:10.763Z,18.60
2023-04-15T07:04:10.734Z,16.60
2023-04-15T07:05:10.706Z,17.70
2023-04-15T07:06:10.676Z,18.90
2023-04-15T07:07:10.658Z,18.20
2023-04-15T07:08:10.646Z,19.20
2023-04-15T07:09:10.649Z,18.40
2023-04-15T07:10:10.638Z,19.50
2023-04-15T07:11:10.624Z,17.20
2023-04-15T07:12:10.601Z,17.50
2023-04-15T07:13:10.591Z,17.80
2023-04-15T07:14:10.592Z,16.80
2023-04-15T07:15:10.576Z,16.80
2023-04-15T07:16:10.594Z,19.20
2023-04-15T07:17:10.594Z,17.10
2023-04-15T07:18:10.525Z,16.50
2023-04-15T07:19:10.505Z,16.80
2023-04-15T07:20:10.526Z,17.20
2023-04-15T07:21:10.479Z,17.30
2023-04-15T07:22:10.466Z,16.10
2023-04-15T07:23:10.455Z,15.30
2023-04-15T07:24:10.512Z,14.40
2023-04-15T07:25:10.439Z,15.40
2023-04-15T07:26:10.412Z,14.00
2023-04-15T07:27:10.421Z,15.40
2023-04-15T07:28:10.385Z,14.70
2023-04-15T07:29:10.378Z,13.80
2023-04-15T07:30:10.377Z,14.50
2023-04-15T07:31:10.411Z,17.30
2023-04-15T07:32:10.367Z,12.60
2023-04-15T07:33:10.319Z,14.30
2023-04-15T07:34:10.358Z,15.60
2023-04-15T07:35:10.313Z,17.10
2023-04-15T07:36:10.293Z,16.10
2023-04-15T07:37:10.265Z,13.80
2023-04-15T07:38:10.261Z,13.90
2023-04-15T07:39:10.240Z,16.80
2023-04-15T07:40:10.259Z,14.70
2023-04-15T07:41:10.215Z,15.40
2023-04-15T07:42:10.202Z,15.90
2023-04-15T07:43:10.198Z,15.60
2023-04-15T07:44:10.191Z,14.80
2023-04-15T07:45:10.178Z,17.40
2023-04-15T07:46:10.174Z,13.50
2023-04-15T07:47:10.143Z,13.70
2023-04-15T07:48:10.134Z,14.90
2023-04-15T07:49:10.115Z,15.80
2023-04-15T07:50:10.106Z,13.90
2023-04-15T07:51:10.087Z,11.10
2023-04-15T07:52:10.071Z,11.70
2023-04-15T07:53:10.069Z,15.30
2023-04-15T07:54:10.056Z,13.20
2023-04-15T07:55:10.053Z,12.10
2023-04-15T07:56:10.016Z,11.50
2023-04-15T07:57:10.013Z,13.50
2023-04-15T07:58:09.999Z,11.60
2023-04-15T07:59:09.990Z,12.00
2023-04-15T08:00:09.989Z,13.50
2023-04-15T08:01:09.965Z,12.90
2023-04-15T08:02:10.067Z,13.20
2023-04-15T08:03:10.085Z,13.60
2023-04-15T08:04:10.158Z,13.50
2023-04-15T08:05:09.970Z,15.00
2023-04-15T08:06:09.891Z,14.10
2023-04-15T08:07:09.874Z,14.90
2023-04-15T08:08:09.861Z,13.90
2023-04-15T08:09:09.858Z,15.60
2023-04-15T08:10:09.845Z,15.70
2023-04-15T08:11:09.828Z,13.40
2023-04-15T08:12:09.806Z,15.80
2023-04-15T08:13:09.800Z,15.20
2023-04-15T08:14:09.779Z,17.30
2023-04-15T08:15:09.788Z,14.40
2023-04-15T08:16:09.791Z,16.90
2023-04-15T08:17:09.747Z,15.20
2023-04-15T08:18:09.722Z,14.90
2023-04-15T08:19:09.722Z,16.50
2023-04-15T08:20:09.709Z,15.90
2023-04-15T08:21:09.692Z,14.40
2023-04-15T08:22:10.363Z,13.40
2023-04-15T08:23:10.665Z,12.80
2023-04-15T08:24:09.657Z,14.80
2023-04-15T08:25:09.652Z,14.00
2023-04-15T08:26:09.623Z,13.30
2023-04-15T08:27:09.624Z,13.90
2023-04-15T08:28:09.594Z,14.50
2023-04-15T08:29:09.596Z,16.20
2023-04-15T08:30:09.579Z,13.50
2023-04-15T08:31:09.649Z,13.50
2023-04-15T08:32:09.584Z,15.30
2023-04-15T08:33:09.544Z,12.80
2023-04-15T08:34:09.527Z,12.60
2023-04-15T08:35:09.512Z,17.00
2023-04-15T08:36:09.490Z,14.30
2023-04-15T08:37:10.848Z,12.00
2023-04-15T08:38:09.461Z,13.40
2023-04-15T08:39:09.458Z,12.40
2023-04-15T08:40:09.451Z,13.80
2023-04-15T08:41:09.426Z,14.50
2023-04-15T08:42:09.404Z,13.50
2023-04-15T08:43:09.418Z,15.10
2023-04-15T08:44:09.391Z,15.70
2023-04-15T08:45:09.406Z,15.50
2023-04-15T08:46:09.362Z,13.40
2023-04-15T08:47:09.437Z,14.40
2023-04-15T08:48:09.333Z,12.70
2023-04-15T08:49:09.322Z,13.20
2023-04-15T08:50:09.315Z,14.30
2023-04-15T08:51:09.306Z,16.00
2023-04-15T08:52:09.283Z,14.10
2023-04-15T08:53:09.276Z,13.80
2023-04-15T08:54:09.251Z,13.90
2023-04-15T08:55:09.258Z,14.20
2023-04-15T08:56:09.227Z,14.30
2023-04-15T08:57:09.221Z,14.10
2023-04-15T08:58:09.200Z,14.90
2023-04-15T08:59:09.194Z,13.40
2023-04-15T09:00:09.206Z,13.10
2023-04-15T09:01:09.195Z,14.10
2023-04-15T09:02:09.192Z,14.40
2023-04-15T09:03:09.279Z,14.80
2023-04-15T09:04:09.141Z,14.60
2023-04-15T09:05:09.128Z,13.10
2023-04-15T09:06:09.084Z,14.00
2023-04-15T09:07:09.085Z,14.70
2023-04-15T09:08:09.098Z,15.90
2023-04-15T09:09:09.057Z,14.30
2023-04-15T09:10:09.069Z,15.20
2023-04-15T09:11:09.048Z,14.30
2023-04-15T09:12:09.018Z,12.30
2023-04-15T09:13:09.007Z,12.50
2023-04-15T09:14:08.993Z,11.90
2023-04-15T09:15:08.991Z,12.40
2023-04-15T09:16:08.986Z,14.80
2023-04-15T09:17:08.948Z,12.90
2023-04-15T09:18:08.943Z,12.20
2023-04-15T09:19:08.940Z,14.00
2023-04-15T09:20:08.942Z,12.30
2023-04-15T09:21:08.914Z,13.60
2023-04-15T09:22:08.885Z,11.70
2023-04-15T09:23:08.872Z,13.10
2023-04-15T09:24:08.860Z,12.20
2023-04-15T09:25:08.857Z,13.00
2023-04-15T09:26:08.832Z,11.20
2023-04-15T09:27:08.830Z,14.50
2023-04-15T09:28:08.812Z,10.60
2023-04-15T09:29:08.800Z,11.20
2023-04-15T09:30:08.795Z,11.10
2023-04-15T09:31:08.830Z,13.60
2023-04-15T09:32:08.748Z,11.40
2023-04-15T09:33:09.056Z,11.30
2023-04-15T09:34:08.727Z,10.10
2023-04-15T09:35:08.735Z,10.70
2023-04-15T09:36:08.702Z,10.40
2023-04-15T09:37:08.698Z,10.30
2023-04-15T09:38:08.677Z,10.50
2023-04-15T09:39:08.669Z,10.70
2023-04-15T09:40:08.657Z,10.60
2023-04-15T09:41:08.638Z,9.40
2023-04-15T09:42:08.644Z,9.20
2023-04-15T09:43:08.617Z,10.60
2023-04-15T09:44:08.605Z,9.90
2023-04-15T09:45:08.600Z,9.90
2023-04-15T09:46:08.624Z,9.90
2023-04-15T09:47:08.554Z,7.70
2023-04-15T09:48:08.556Z,10.10
2023-04-15T09:49:08.534Z,9.00
2023-04-15T09:50:08.539Z,9.30
2023-04-15T09:51:08.504Z,8.50
2023-04-15T09:52:08.495Z,9.20
2023-04-15T09:53:08.498Z,9.10
2023-04-15T09:54:08.464Z,11.00
2023-04-15T09:55:08.452Z,8.70
2023-04-15T09:56:08.445Z,8.00
2023-04-15T09:57:08.465Z,9.00
2023-04-15T09:58:08.408Z,8.10
2023-04-15T09:59:08.411Z,9.00
2023-04-15T10:00:08.448Z,9.50
2023-04-15T10:01:08.394Z,11.20
2023-04-15T10:02:08.424Z,12.10
2023-04-15T10:03:08.460Z,9.40
2023-04-15T10:04:08.389Z,8.60
2023-04-15T10:05:08.347Z,9.30
2023-04-15T10:06:08.332Z,8.70
2023-04-15T10:07:08.299Z,8.90
2023-04-15T10:08:08.280Z,9.90
2023-04-15T10:09:08.282Z,9.30
2023-04-15T10:10:08.267Z,7.20
2023-04-15T10:11:08.246Z,8.70
2023-04-15T10:12:08.227Z,7.80
2023-04-15T10:13:08.219Z,10.20
2023-04-15T10:14:08.202Z,8.90
2023-04-15T10:15:08.198Z,8.00
2023-04-15T10:16:08.275Z,9.10
2023-04-15T10:17:08.159Z,9.40
2023-04-15T10:18:08.181Z,10.30
2023-04-15T10:19:08.403Z,10.70
2023-04-15T10:20:08.139Z,8.20
2023-04-15T10:21:08.108Z,9.30
2023-04-15T10:22:08.108Z,9.10
2023-04-15T10:23:09.910Z,8.70
2023-04-15T10:24:08.079Z,10.20
2023-04-15T10:25:08.064Z,8.80
2023-04-15T10:26:08.056Z,9.20
2023-04-15T10:27:08.027Z,9.10
2023-04-15T10:28:08.026Z,9.20
2023-04-15T10:29:08.001Z,8.50
2023-04-15T10:30:08.001Z,11.70
2023-04-15T10:31:08.000Z,9.30
2023-04-15T10:32:08.000Z,9.00
2023-04-15T10:33:07.945Z,9.50
2023-04-15T10:34:07.939Z,10.10
2023-04-15T10:35:07.925Z,9.50
2023-04-15T10:36:07.931Z,9.00
2023-04-15T10:37:07.891Z,9.10
2023-04-15T10:38:07.880Z,9.00
2023-04-15T10:39:07.875Z,9.60
2023-04-15T10:40:07.867Z,10.40
2023-04-15T10:41:07.836Z,9.30
2023-04-15T10:42:07.833Z,8.90
2023-04-15T10:43:07.817Z,9.20
2023-04-15T10:44:07.808Z,8.50
2023-04-15T10:45:07.793Z,12.80
2023-04-15T10:46:07.816Z,9.50
2023-04-15T10:47:07.760Z,10.10
2023-04-15T10:48:07.812Z,10.30
2023-04-15T10:49:07.732Z,9.40
2023-04-15T10:50:07.741Z,10.20
2023-04-15T10:51:07.709Z,8.20
2023-04-15T10:52:07.695Z,11.40
2023-04-15T10:53:07.676Z,7.70
2023-04-15T10:54:07.740Z,9.20
2023-04-15T10:55:07.680Z,7.70
2023-04-15T10:56:07.656Z,7.50
2023-04-15T10:57:07.629Z,8.10
2023-04-15T10:58:07.625Z,9.30
2023-04-15T10:59:07.594Z,8.40
2023-04-15T11:00:07.596Z,8.80
2023-04-15T11:01:07.569Z,7.30
2023-04-15T11:02:07.685Z,7.00
2023-04-15T11:03:07.831Z,6.70
2023-04-15T11:04:08.088Z,8.20
2023-04-15T11:05:07.526Z,7.70
2023-04-15T11:06:07.534Z,9.50
2023-04-15T11:07:07.508Z,8.60
2023-04-15T11:08:07.475Z,7.80
2023-04-15T11:09:07.467Z,7.50
2023-04-15T11:10:07.466Z,7.40
2023-04-15T11:11:07.441Z,9.40
2023-04-15T11:12:07.439Z,8.10
2023-04-15T11:13:07.407Z,7.60
2023-04-15T11:14:07.397Z,6.30
2023-04-15T11:15:07.389Z,7.70
2023-04-15T11:16:07.391Z,5.60
2023-04-15T11:17:07.345Z,6.60
2023-04-15T11:18:07.367Z,6.90
2023-04-15T11:19:07.327Z,7.80
2023-04-15T11:20:07.334Z,7.30
2023-04-15T11:21:07.299Z,7.90
2023-04-15T11:22:07.287Z,8.40
2023-04-15T11:23:14.607Z,6.20
2023-04-15T11:24:08.590Z,7.10
2023-04-15T11:25:07.256Z,7.40
2023-04-15T11:26:07.235Z,6.80
2023-04-15T11:27:07.214Z,6.80
2023-04-15T11:28:07.208Z,7.50
2023-04-15T11:29:07.188Z,8.30
2023-04-15T11:30:07.204Z,5.20
2023-04-15T11:31:07.161Z,7.20
2023-04-15T11:32:07.179Z,6.60
2023-04-15T11:33:07.133Z,6.20
2023-04-15T11:34:07.177Z,6.80
2023-04-15T11:35:07.114Z,6.00
2023-04-15T11:36:07.108Z,7.20
2023-04-15T11:37:07.075Z,6.60
2023-04-15T11:38:07.069Z,7.30
2023-04-15T11:39:07.049Z,7.30
2023-04-15T11:40:07.058Z,7.00
2023-04-15T11:41:07.026Z,7.80
2023-04-15T11:42:07.017Z,6.60
2023-04-15T11:43:07.006Z,6.40
2023-04-15T11:44:06.991Z,6.50
2023-04-15T11:45:06.985Z,8.40
2023-04-15T11:46:07.040Z,8.80
2023-04-15T11:47:06.940Z,6.60
2023-04-15T11:48:06.948Z,6.10
2023-04-15T11:49:06.920Z,6.90
2023-04-15T11:50:06.927Z,7.10
2023-04-15T11:51:06.896Z,5.70
2023-04-15T11:52:06.878Z,7.20
2023-04-15T11:53:08.599Z,6.70
2023-04-15T11:54:07.135Z,6.20
2023-04-15T11:55:06.845Z,5.30
2023-04-15T11:56:06.823Z,7.00
2023-04-15T11:57:06.822Z,7.40
2023-04-15T11:58:06.798Z,5.40
2023-04-15T11:59:06.774Z,7.50
2023-04-15T12:00:06.790Z,5.80
2023-04-15T12:01:06.755Z,9.20
2023-04-15T12:02:06.792Z,6.50
2023-04-15T12:03:06.907Z,6.90
2023-04-15T12:04:07.207Z,6.40
2023-04-15T12:05:06.779Z,8.20
2023-04-15T12:06:06.684Z,9.30
2023-04-15T12:07:06.669Z,6.60
2023-04-15T12:08:06.653Z,7.40
2023-04-15T12:09:06.656Z,6.30
2023-04-15T12:10:06.640Z,7.10
2023-04-15T12:11:06.624Z,5.80
2023-04-15T12:12:06.621Z,6.70
2023-04-15T12:13:06.600Z,6.70
2023-04-15T12:14:06.642Z,6.60
2023-04-15T12:15:06.581Z,7.10
2023-04-15T12:16:06.579Z,4.80
2023-04-15T12:17:06.543Z,6.00
2023-04-15T12:18:06.542Z,5.90
2023-04-15T12:19:06.519Z,5.20
2023-04-15T12:20:06.510Z,6.30
2023-04-15T12:21:06.483Z,5.30
2023-04-15T12:22:06.463Z,5.70
2023-04-15T12:23:06.469Z,4.20
2023-04-15T12:24:06.670Z,6.30
2023-04-15T12:25:06.478Z,5.60
2023-04-15T12:26:06.411Z,5.30
2023-04-15T12:27:06.410Z,4.50
2023-04-15T12:28:06.392Z,5.90
2023-04-15T12:29:06.408Z,5.60
2023-04-15T12:30:06.387Z,7.10
2023-04-15T12:31:06.384Z,5.00
2023-04-15T12:32:06.338Z,4.50
2023-04-15T12:33:06.378Z,6.00
2023-04-15T12:34:06.550Z,5.00
2023-04-15T12:35:06.324Z,4.50
2023-04-15T12:36:06.294Z,5.80
2023-04-15T12:37:06.286Z,3.70
2023-04-15T12:38:06.261Z,6.30
2023-04-15T12:39:06.306Z,4.10
2023-04-15T12:40:06.243Z,5.00
2023-04-15T12:41:06.228Z,5.90
2023-04-15T12:42:06.234Z,6.80
2023-04-15T12:43:06.201Z,3.80
2023-04-15T12:44:06.430Z,4.60
2023-04-15T12:45:06.187Z,4.20
2023-04-15T12:46:06.218Z,4.80
2023-04-15T12:47:06.152Z,4.80
2023-04-15T12:48:06.142Z,4.20
2023-04-15T12:49:06.130Z,4.20
2023-04-15T12:50:06.120Z,4.50
2023-04-15T12:51:06.100Z,4.60
2023-04-15T12:52:06.086Z,4.70
2023-04-15T12:53:06.081Z,5.20
2023-04-15T12:54:06.387Z,3.60
2023-04-15T12:55:06.192Z,4.60
2023-04-15T12:56:06.032Z,4.40
2023-04-15T12:57:07.467Z,4.80
2023-04-15T12:58:06.008Z,3.40
2023-04-15T12:59:06.005Z,4.30
2023-04-15T13:00:05.985Z,3.30
2023-04-15T13:01:05.971Z,3.50
2023-04-15T13:02:06.134Z,4.90
2023-04-15T13:03:07.214Z,5.00
2023-04-15T13:04:06.177Z,4.70
2023-04-15T13:05:05.945Z,3.80
2023-04-15T13:06:05.899Z,3.80
2023-04-15T13:07:05.912Z,4.00
2023-04-15T13:08:05.881Z,4.10
2023-04-15T13:09:06.138Z,3.70
2023-04-15T13:10:05.867Z,3.50
2023-04-15T13:11:05.857Z,3.90
2023-04-15T13:12:05.837Z,3.20
2023-04-15T13:13:05.832Z,5.10
2023-04-15T13:14:05.896Z,2.90
2023-04-15T13:15:05.882Z,3.00
2023-04-15T13:16:05.800Z,4.30
2023-04-15T13:17:05.752Z,3.50
2023-04-15T13:18:05.767Z,5.00
2023-04-15T13:19:05.746Z,3.70
2023-04-15T13:20:05.731Z,3.40
2023-04-15T13:21:05.713Z,3.60
2023-04-15T13:22:05.722Z,5.30
2023-04-15T13:23:05.686Z,2.50
2023-04-15T13:24:05.915Z,3.40
2023-04-15T13:25:05.678Z,2.90
2023-04-15T13:26:05.649Z,3.50
2023-04-15T13:27:05.627Z,2.70
2023-04-15T13:28:05.618Z,4.40
2023-04-15T13:29:05.608Z,3.20
2023-04-15T13:30:05.610Z,5.40
2023-04-15T13:31:05.611Z,3.60
2023-04-15T13:32:05.570Z,5.70
2023-04-15T13:33:05.566Z,4.00
2023-04-15T13:34:05.812Z,6.30
2023-04-15T13:35:05.543Z,4.50
2023-04-15T13:36:05.568Z,5.30
2023-04-15T13:37:05.501Z,4.20
2023-04-15T13:38:05.513Z,3.80
2023-04-15T13:39:05.488Z,4.20
2023-04-15T13:40:05.477Z,4.20
2023-04-15T13:41:05.456Z,4.50
2023-04-15T13:42:05.440Z,4.40
2023-04-15T13:43:05.424Z,3.10
2023-04-15T13:44:05.641Z,4.80
2023-04-15T13:45:05.405Z,4.00
2023-04-15T13:46:05.504Z,3.40
2023-04-15T13:47:05.379Z,3.70
2023-04-15T13:48:05.359Z,3.20
2023-04-15T13:49:05.349Z,3.40
2023-04-15T13:50:05.392Z,6.40
2023-04-15T13:51:05.344Z,6.60
2023-04-15T13:52:05.321Z,4.20
2023-04-15T13:53:05.288Z,4.00
2023-04-15T13:54:05.683Z,3.60
2023-04-15T13:55:19.438Z,3.10
2023-04-15T13:56:06.274Z,2.90
2023-04-15T13:57:05.244Z,3.70
2023-04-15T13:58:05.233Z,4.40
2023-04-15T13:59:05.218Z,5.60
2023-04-15T14:00:05.225Z,4.00
2023-04-15T14:01:06.298Z,3.80
2023-04-15T14:02:05.305Z,4.50
2023-04-15T14:03:05.350Z,3.10
2023-04-15T14:04:05.474Z,3.60
2023-04-15T14:05:05.128Z,3.00
2023-04-15T14:06:05.172Z,5.00
2023-04-15T14:07:05.413Z,5.00
2023-04-15T14:08:05.105Z,3.80
2023-04-15T14:09:05.410Z,2.40
2023-04-15T14:10:05.166Z,3.90
2023-04-15T14:11:05.093Z,5.20
2023-04-15T14:12:05.057Z,6.00
2023-04-15T14:13:05.027Z,4.70
2023-04-15T14:14:05.304Z,3.00
2023-04-15T14:15:05.020Z,3.30
2023-04-15T14:16:05.002Z,3.50
2023-04-15T14:17:04.978Z,2.60
2023-04-15T14:18:04.978Z,2.50
2023-04-15T14:19:05.194Z,2.80
2023-04-15T14:20:04.929Z,4.70
2023-04-15T14:21:04.921Z,4.30
2023-04-15T14:22:04.908Z,2.80
2023-04-15T14:23:04.894Z,4.50
2023-04-15T14:24:04.899Z,4.40
2023-04-15T14:25:04.865Z,4.50
2023-04-15T14:26:04.880Z,5.50
2023-04-15T14:27:04.845Z,4.50
2023-04-15T14:28:04.823Z,3.70
2023-04-15T14:29:05.056Z,5.10
2023-04-15T14:30:04.803Z,2.90
2023-04-15T14:31:04.849Z,4.00
2023-04-15T14:32:12.027Z,6.00
2023-04-15T14:33:05.760Z,4.20
2023-04-15T14:34:04.842Z,3.10
2023-04-15T14:35:04.740Z,4.80
2023-04-15T14:36:04.743Z,4.60
2023-04-15T14:37:04.705Z,3.10
2023-04-15T14:38:04.701Z,5.30
2023-04-15T14:39:04.897Z,3.90
2023-04-15T14:40:04.670Z,6.00
2023-04-15T14:41:04.660Z,4.20
2023-04-15T14:42:04.654Z,4.20
2023-04-15T14:43:04.633Z,6.10
2023-04-15T14:44:04.620Z,4.80
2023-04-15T14:45:04.607Z,5.90
2023-04-15T14:46:04.608Z,4.50
2023-04-15T14:47:04.580Z,4.80
2023-04-15T14:48:04.611Z,5.20
2023-04-15T14:49:04.722Z,6.00
2023-04-15T14:50:04.546Z,6.90
2023-04-15T14:51:04.541Z,4.50
2023-04-15T14:52:04.514Z,6.10
2023-04-15T14:53:04.497Z,5.00
2023-04-15T14:54:04.570Z,5.70
2023-04-15T14:55:04.469Z,7.00
2023-04-15T14:56:04.484Z,4.80
2023-04-15T14:57:04.446Z,5.90
2023-04-15T14:58:04.438Z,5.80
2023-04-15T14:59:04.570Z,5.00
2023-04-15T15:00:04.494Z,5.00
2023-04-15T15:01:04.516Z,5.10
2023-04-15T15:02:04.511Z,5.60
2023-04-15T15:03:04.419Z,5.50
2023-04-15T15:04:04.459Z,4.90
2023-04-15T15:05:04.448Z,3.10
2023-04-15T15:06:04.335Z,7.50
2023-04-15T15:07:04.316Z,5.60
2023-04-15T15:08:04.301Z,7.40
2023-04-15T15:09:04.548Z,6.00
2023-04-15T15:10:04.276Z,5.90
2023-04-15T15:11:04.265Z,6.90
2023-04-15T15:12:04.266Z,7.70
2023-04-15T15:13:04.239Z,4.10
2023-04-15T15:14:04.232Z,5.00
2023-04-15T15:15:12.330Z,5.30
2023-04-15T15:16:05.244Z,5.10
2023-04-15T15:17:04.179Z,4.70
2023-04-15T15:18:04.176Z,6.10
2023-04-15T15:19:04.374Z,5.60
2023-04-15T15:20:04.246Z,3.40
2023-04-15T15:21:04.144Z,5.60
2023-04-15T15:22:04.121Z,4.60
2023-04-15T15:23:04.099Z,6.00
2023-04-15T15:24:04.095Z,5.10
2023-04-15T15:25:04.076Z,7.30
2023-04-15T15:26:04.073Z,4.60
2023-04-15T15:27:04.059Z,4.30
2023-04-15T15:28:04.041Z,6.70
2023-04-15T15:29:04.347Z,4.80
2023-04-15T15:30:04.012Z,5.50
2023-04-15T15:31:04.036Z,6.70
2023-04-15T15:32:03.997Z,6.30
2023-04-15T15:33:04.074Z,7.30
2023-04-15T15:34:03.975Z,6.40
2023-04-15T15:35:03.947Z,7.10
2023-04-15T15:36:03.924Z,9.20
2023-04-15T15:37:03.930Z,7.10
2023-04-15T15:38:03.914Z,8.70
2023-04-15T15:39:05.151Z,9.20
2023-04-15T15:40:03.880Z,8.70
2023-04-15T15:41:03.882Z,10.20
2023-04-15T15:42:03.854Z,11.40
2023-04-15T15:43:03.843Z,7.40
2023-04-15T15:44:03.848Z,7.30
2023-04-15T15:45:03.814Z,10.40
2023-04-15T15:46:03.802Z,8.50
2023-04-15T15:47:03.936Z,5.40
2023-04-15T15:48:03.824Z,5.60
2023-04-15T15:49:04.043Z,4.50
2023-04-15T15:50:06.028Z,4.60
2023-04-15T15:51:03.734Z,4.10
2023-04-15T15:52:03.737Z,4.70
2023-04-15T15:53:03.723Z,4.70
2023-04-15T15:54:03.701Z,5.60
2023-04-15T15:55:03.695Z,5.80
2023-04-15T15:56:03.674Z,5.60
2023-04-15T15:57:03.663Z,3.10
2023-04-15T15:58:03.640Z,3.90
2023-04-15T15:59:03.848Z,3.90
2023-04-15T16:01:03.640Z,4.10
2023-04-15T16:02:03.729Z,4.40
2023-04-15T16:03:07.318Z,4.20
2023-04-15T16:04:03.699Z,4.60
2023-04-15T16:05:03.550Z,3.30
2023-04-15T16:06:03.530Z,4.10
2023-04-15T16:07:03.533Z,5.00
2023-04-15T16:08:03.514Z,3.70
2023-04-15T16:09:03.719Z,3.50
2023-04-15T16:10:03.482Z,5.60
2023-04-15T16:11:03.469Z,4.30
2023-04-15T16:12:03.478Z,5.00
2023-04-15T16:13:03.438Z,4.10
2023-04-15T16:14:03.427Z,5.70
2023-04-15T16:15:03.413Z,3.40
2023-04-15T16:16:03.411Z,4.10
2023-04-15T16:17:03.401Z,4.80
2023-04-15T16:18:03.419Z,4.60
2023-04-15T16:19:03.656Z,2.70
2023-04-15T16:20:03.436Z,3.50
2023-04-15T16:21:03.338Z,6.70
2023-04-15T16:22:03.346Z,5.80
2023-04-15T16:23:03.356Z,13.00
2023-04-15T16:24:03.298Z,6.80
2023-04-15T16:25:03.365Z,7.50
2023-04-15T16:26:03.271Z,12.50
2023-04-15T16:27:03.279Z,4.50
2023-04-15T16:28:08.854Z,8.00
2023-04-15T16:29:04.482Z,14.30
2023-04-15T16:30:03.215Z,21.40
2023-04-15T16:31:03.207Z,5.90
2023-04-15T16:32:03.214Z,5.30
2023-04-15T16:33:03.190Z,5.10
2023-04-15T16:34:03.162Z,8.60
2023-04-15T16:35:03.245Z,5.50
2023-04-15T16:36:03.148Z,6.90
2023-04-15T16:37:03.143Z,6.10
2023-04-15T16:38:03.125Z,5.70
2023-04-15T16:39:03.435Z,6.30
2023-04-15T16:40:03.083Z,5.70
2023-04-15T16:41:03.081Z,10.00
2023-04-15T16:42:03.094Z,8.20
2023-04-15T16:43:03.038Z,7.00
2023-04-15T16:44:03.032Z,5.90
2023-04-15T16:45:03.038Z,5.50
2023-04-15T16:46:03.052Z,11.40
2023-04-15T16:47:02.992Z,9.50
2023-04-15T16:48:03.032Z,7.00
2023-04-15T16:49:03.259Z,7.30
2023-04-15T16:50:02.954Z,9.40
2023-04-15T16:51:02.954Z,10.30
2023-04-15T16:52:02.945Z,7.60
2023-04-15T16:53:02.914Z,7.90
2023-04-15T16:54:02.900Z,14.10
2023-04-15T16:55:02.889Z,11.30
2023-04-15T16:56:02.875Z,12.10
2023-04-15T16:57:02.870Z,13.30
2023-04-15T16:58:04.188Z,11.10
2023-04-15T16:59:02.989Z,12.00
2023-04-15T17:00:02.830Z,11.70
2023-04-15T17:01:02.846Z,15.10
2023-04-15T17:02:02.895Z,12.00
2023-04-15T17:03:03.094Z,10.90
2023-04-15T17:04:02.889Z,9.70
2023-04-15T17:05:02.796Z,12.80
2023-04-15T17:06:02.750Z,17.50
2023-04-15T17:07:02.756Z,12.30
2023-04-15T17:08:02.735Z,18.50
2023-04-15T17:09:02.780Z,13.60
2023-04-15T17:10:02.694Z,12.20
2023-04-15T17:11:02.676Z,12.30
2023-04-15T17:12:02.678Z,12.30
2023-04-15T17:13:02.652Z,14.10
2023-04-15T17:14:02.669Z,9.20
2023-04-15T17:15:02.629Z,13.30
2023-04-15T17:16:02.656Z,13.80
2023-04-15T17:17:02.603Z,12.60
2023-04-15T17:18:02.609Z,14.10
2023-04-15T17:19:02.671Z,13.20
2023-04-15T17:20:02.569Z,14.20
2023-04-15T17:21:02.554Z,15.20